createdAt,value
2022-10-02T00:03:14.991Z,13.64
2022-10-02T00:07:55.840Z,13.66
2022-10-02T00:12:11.668Z,13.59
2022-10-02T00:16:29.207Z,13.54
2022-10-02T00:20:53.604Z,13.56
2022-10-02T00:25:23.572Z,13.49
2022-10-02T00:29:44.406Z,13.40
2022-10-02T00:34:21.445Z,13.29
2022-10-02T00:38:44.541Z,13.12
2022-10-02T00:43:33.595Z,12.95
2022-10-02T00:48:07.773Z,12.83
2022-10-02T00:52:37.839Z,12.70
2022-10-02T00:57:32.640Z,12.60
2022-10-02T01:01:58.588Z,12.55
2022-10-02T01:06:11.241Z,12.52
2022-10-02T01:10:27.690Z,12.55
2022-10-02T01:14:40.650Z,12.37
2022-10-02T01:18:52.241Z,12.61
2022-10-02T01:23:16.977Z,12.61
2022-10-02T01:27:28.446Z,12.60
2022-10-02T01:31:39.962Z,12.59
2022-10-02T01:35:51.586Z,12.53
2022-10-02T01:40:09.213Z,12.55
2022-10-02T01:44:21.510Z,12.61
2022-10-02T01:48:45.923Z,12.72
2022-10-02T01:53:23.747Z,12.89
2022-10-02T01:57:59.663Z,13.00
2022-10-02T02:02:19.794Z,13.11
2022-10-02T02:06:47.853Z,13.15
2022-10-02T02:11:13.301Z,13.25
2022-10-02T02:15:34.040Z,13.27
2022-10-02T02:19:55.966Z,13.27
2022-10-02T02:24:18.434Z,13.26
2022-10-02T02:28:32.509Z,13.20
2022-10-02T02:32:55.645Z,13.19
2022-10-02T02:37:13.761Z,13.14
2022-10-02T02:41:28.329Z,13.07
2022-10-02T02:45:49.015Z,13.07
2022-10-02T02:50:06.362Z,13.08
2022-10-02T02:54:26.163Z,13.03
2022-10-02T02:58:49.502Z,13.00
2022-10-02T03:03:01.085Z,12.85
2022-10-02T03:07:17.320Z,12.78
2022-10-02T03:12:00.971Z,12.72
2022-10-02T03:16:42.395Z,12.71
2022-10-02T03:21:02.301Z,12.71
2022-10-02T03:25:31.751Z,12.64
2022-10-02T03:29:49.754Z,12.58
2022-10-02T03:34:03.180Z,12.48
2022-10-02T03:38:15.932Z,12.34
2022-10-02T03:42:32.984Z,12.32
2022-10-02T03:46:44.446Z,12.37
2022-10-02T03:50:55.901Z,12.41
2022-10-02T03:55:35.899Z,12.52
2022-10-02T03:59:53.268Z,12.59
2022-10-02T04:04:17.718Z,12.56
2022-10-02T04:08:38.624Z,12.45
2022-10-02T04:12:57.590Z,12.42
2022-10-02T04:17:15.727Z,12.43
2022-10-02T04:21:42.203Z,12.51
2022-10-02T04:26:06.025Z,12.52
2022-10-02T04:30:19.492Z,12.62
2022-10-02T04:34:30.933Z,12.59
2022-10-02T04:39:12.167Z,12.61
2022-10-02T04:43:44.872Z,12.55
2022-10-02T04:48:16.699Z,12.50
2022-10-02T04:52:49.414Z,12.42
2022-10-02T04:57:22.195Z,12.40
2022-10-02T05:02:07.157Z,12.34
2022-10-02T05:06:34.074Z,12.28
2022-10-02T05:11:10.955Z,12.26
2022-10-02T05:15:48.332Z,12.22
2022-10-02T05:20:19.418Z,12.25
2022-10-02T05:24:34.876Z,12.27
2022-10-02T05:29:04.544Z,12.30
2022-10-02T05:33:34.598Z,12.32
2022-10-02T05:37:45.953Z,12.32
2022-10-02T05:42:00.359Z,12.29
2022-10-02T05:46:18.951Z,12.22
2022-10-02T05:50:35.052Z,12.17
2022-10-02T05:54:58.525Z,12.21
2022-10-02T05:59:37.771Z,12.28
2022-10-02T06:04:17.386Z,12.43
2022-10-02T06:08:33.473Z,12.55
2022-10-02T06:12:47.912Z,12.70
2022-10-02T06:17:04.239Z,12.83
2022-10-02T06:21:31.284Z,12.95
2022-10-02T06:26:07.606Z,13.06
2022-10-02T06:30:19.818Z,13.15
2022-10-02T06:34:31.389Z,13.29
2022-10-02T06:38:48.903Z,13.39
2022-10-02T06:43:10.605Z,13.46
2022-10-02T06:47:28.152Z,13.59
2022-10-02T06:52:06.716Z,13.65
2022-10-02T06:56:29.955Z,13.78
2022-10-02T07:01:23.906Z,13.89
2022-10-02T07:05:53.296Z,14.04
2022-10-02T07:10:23.720Z,14.39
2022-10-02T07:15:14.026Z,14.63
2022-10-02T07:19:34.642Z,14.89
2022-10-02T07:23:50.306Z,15.06
2022-10-02T07:28:05.798Z,15.38
2022-10-02T07:32:42.257Z,15.91
2022-10-02T07:37:17.654Z,16.47
2022-10-02T07:41:53.190Z,16.78
2022-10-02T07:46:31.619Z,16.91
2022-10-02T07:51:52.494Z,17.13
2022-10-02T07:56:06.445Z,16.99
2022-10-02T08:00:22.585Z,16.89
2022-10-02T08:04:37.227Z,16.89
2022-10-02T08:09:13.709Z,17.07
2022-10-02T08:13:33.511Z,17.31
2022-10-02T08:17:58.680Z,17.49
2022-10-02T08:22:25.796Z,18.18
2022-10-02T08:26:46.114Z,18.95
2022-10-02T08:30:58.705Z,19.32
2022-10-02T08:35:19.407Z,19.37
2022-10-02T08:39:58.404Z,19.61
2022-10-02T08:44:36.018Z,20.03
2022-10-02T08:49:18.844Z,20.30
2022-10-02T08:53:33.264Z,20.41
2022-10-02T08:58:03.398Z,20.55
2022-10-02T09:02:55.333Z,21.06
2022-10-02T09:07:28.153Z,21.44
2022-10-02T09:12:02.428Z,21.59
2022-10-02T09:16:59.122Z,21.57
2022-10-02T09:21:13.404Z,21.44
2022-10-02T09:25:30.916Z,21.37
2022-10-02T09:30:09.862Z,21.69
2022-10-02T09:34:30.236Z,21.73
2022-10-02T09:39:15.880Z,21.56
2022-10-02T09:43:56.313Z,21.73
2022-10-02T09:48:30.316Z,22.02
2022-10-02T09:53:12.656Z,22.24
2022-10-02T09:57:45.208Z,22.19
2022-10-02T10:02:26.100Z,21.98
2022-10-02T10:07:18.898Z,21.92
2022-10-02T10:11:33.748Z,22.04
2022-10-02T10:16:06.579Z,21.58
2022-10-02T10:20:44.130Z,21.44
2022-10-02T10:25:20.887Z,21.20
2022-10-02T10:30:03.868Z,21.50
2022-10-02T10:35:03.514Z,21.92
2022-10-02T10:39:52.463Z,22.29
2022-10-02T10:44:16.178Z,21.78
2022-10-02T10:49:00.497Z,21.22
2022-10-02T10:53:40.769Z,20.94
2022-10-02T10:58:08.648Z,20.25
2022-10-02T11:02:20.132Z,20.18
2022-10-02T11:06:34.660Z,20.09
2022-10-02T11:11:01.236Z,20.10
2022-10-02T11:15:28.874Z,20.09
2022-10-02T11:19:47.588Z,20.17
2022-10-02T11:24:13.535Z,20.29
2022-10-02T11:28:46.973Z,20.59
2022-10-02T11:33:15.100Z,20.91
2022-10-02T11:38:00.613Z,21.00
2022-10-02T11:42:38.316Z,20.88
2022-10-02T11:47:17.979Z,21.02
2022-10-02T11:51:47.631Z,20.88
2022-10-02T11:56:22.944Z,20.73
2022-10-02T12:00:58.858Z,20.68
2022-10-02T12:05:17.893Z,20.82
2022-10-02T12:09:56.898Z,20.44
2022-10-02T12:14:17.208Z,19.81
2022-10-02T12:18:47.250Z,19.79
2022-10-02T12:23:35.869Z,20.30
2022-10-02T12:28:20.079Z,20.35
2022-10-02T12:32:49.854Z,20.33
2022-10-02T12:37:09.584Z,20.36
2022-10-02T12:41:58.854Z,20.56
2022-10-02T12:46:22.520Z,20.62
2022-10-02T12:50:52.994Z,20.49
2022-10-02T12:55:46.482Z,20.70
2022-10-02T13:00:18.551Z,20.62
2022-10-02T13:04:43.761Z,20.56
2022-10-02T13:09:28.143Z,20.26
2022-10-02T13:14:02.124Z,20.05
2022-10-02T13:18:19.686Z,19.85
2022-10-02T13:22:44.552Z,19.88
2022-10-02T13:27:10.461Z,19.90
2022-10-02T13:31:40.645Z,20.11
2022-10-02T13:36:17.052Z,20.58
2022-10-02T13:40:55.087Z,20.69
2022-10-02T13:45:26.323Z,20.27
2022-10-02T13:50:07.153Z,19.78
2022-10-02T13:55:04.998Z,19.74
2022-10-02T13:59:27.486Z,19.52
2022-10-02T14:03:56.588Z,19.43
2022-10-02T14:08:14.038Z,19.48
2022-10-02T14:12:28.461Z,19.62
2022-10-02T14:16:54.668Z,19.56
2022-10-02T14:21:17.901Z,19.63
2022-10-02T14:25:49.168Z,19.71
2022-10-02T14:30:07.230Z,19.41
2022-10-02T14:34:24.770Z,19.15
2022-10-02T14:38:54.993Z,19.15
2022-10-02T14:43:40.409Z,18.99
2022-10-02T14:48:07.244Z,18.91
2022-10-02T14:53:12.921Z,18.85
2022-10-02T14:57:47.945Z,18.77
2022-10-02T15:02:11.569Z,18.83
2022-10-02T15:06:36.499Z,18.77
2022-10-02T15:10:49.250Z,18.70
2022-10-02T15:15:13.822Z,18.44
2022-10-02T15:19:40.043Z,18.28
2022-10-02T15:23:51.686Z,18.12
2022-10-02T15:28:36.262Z,18.05
2022-10-02T15:32:54.860Z,17.85
2022-10-02T15:37:18.436Z,17.79
2022-10-02T15:41:40.583Z,17.78
2022-10-02T15:46:17.504Z,17.68
2022-10-02T15:50:50.184Z,17.51
2022-10-02T15:55:25.096Z,17.39
2022-10-02T15:59:51.900Z,17.29
2022-10-02T16:04:15.156Z,17.13
2022-10-02T16:08:57.724Z,17.13
2022-10-02T16:13:30.765Z,16.96
2022-10-02T16:18:03.093Z,16.87
2022-10-02T16:22:19.923Z,16.76
2022-10-02T16:27:03.286Z,16.63
2022-10-02T16:31:39.055Z,16.51
2022-10-02T16:35:50.682Z,16.40
2022-10-02T16:40:26.832Z,16.36
2022-10-02T16:44:47.273Z,16.36
2022-10-02T16:49:24.724Z,16.26
2022-10-02T16:53:58.182Z,16.12
2022-10-02T16:58:43.590Z,15.90
2022-10-02T17:02:55.139Z,15.82
2022-10-02T17:07:29.852Z,15.69
2022-10-02T17:11:54.095Z,15.48
2022-10-02T17:16:12.201Z,15.40
2022-10-02T17:20:28.296Z,15.29
2022-10-02T17:24:46.661Z,15.23
2022-10-02T17:29:14.714Z,15.12
2022-10-02T17:33:32.256Z,15.11
2022-10-02T17:37:57.094Z,14.92
2022-10-02T17:42:28.286Z,14.74
2022-10-02T17:46:49.726Z,14.74
2022-10-02T17:51:53.732Z,14.63
2022-10-02T17:56:33.194Z,14.55
2022-10-02T18:01:12.355Z,14.49
2022-10-02T18:05:26.772Z,14.38
2022-10-02T18:10:03.574Z,14.24
2022-10-02T18:14:40.059Z,14.15
2022-10-02T18:19:20.888Z,14.01
2022-10-02T18:24:04.161Z,13.94
2022-10-02T18:28:29.901Z,13.96
2022-10-02T18:32:55.726Z,13.93
2022-10-02T18:37:27.914Z,13.80
2022-10-02T18:41:59.580Z,13.81
2022-10-02T18:46:49.733Z,13.76
2022-10-02T18:51:31.914Z,13.67
2022-10-02T18:56:22.181Z,13.57
2022-10-02T19:01:04.710Z,13.53
2022-10-02T19:05:29.265Z,13.47
2022-10-02T19:09:41.448Z,13.48
2022-10-02T19:13:53.017Z,13.38
2022-10-02T19:18:07.029Z,13.33
2022-10-02T19:22:25.871Z,13.26
2022-10-02T19:26:43.970Z,13.24
2022-10-02T19:31:00.920Z,13.09
2022-10-02T19:35:19.291Z,13.01
2022-10-02T19:39:43.033Z,12.99
2022-10-02T19:44:06.862Z,12.89
2022-10-02T19:48:18.979Z,12.80
2022-10-02T19:52:43.532Z,12.72
2022-10-02T19:57:07.813Z,12.65
2022-10-02T20:01:23.203Z,12.71
2022-10-02T20:05:36.926Z,12.70
2022-10-02T20:09:54.499Z,12.58
2022-10-02T20:14:11.238Z,12.58
2022-10-02T20:18:24.552Z,12.37
2022-10-02T20:23:05.281Z,12.50
2022-10-02T20:27:43.165Z,12.46
2022-10-02T20:32:02.002Z,12.40
2022-10-02T20:36:19.575Z,12.26
2022-10-02T20:40:36.639Z,12.32
2022-10-02T20:44:48.592Z,12.20
2022-10-02T20:49:25.085Z,12.25
2022-10-02T20:53:52.485Z,12.20
2022-10-02T20:58:38.253Z,12.15
2022-10-02T21:03:25.199Z,12.09
2022-10-02T21:07:55.745Z,11.95
2022-10-02T21:12:46.527Z,12.07
2022-10-02T21:17:25.018Z,12.09
2022-10-02T21:21:53.692Z,11.98
2022-10-02T21:26:26.963Z,12.03
2022-10-02T21:31:06.409Z,11.95
2022-10-02T21:35:57.216Z,11.88
2022-10-02T21:40:45.753Z,11.83
2022-10-02T21:45:04.358Z,11.78
2022-10-02T21:49:39.306Z,11.62
2022-10-02T21:54:32.848Z,11.68
2022-10-02T21:59:03.088Z,11.57
2022-10-02T22:03:27.667Z,11.61
2022-10-02T22:07:50.687Z,11.55
2022-10-02T22:12:07.723Z,11.50
2022-10-02T22:16:42.188Z,11.45
2022-10-02T22:21:09.008Z,11.43
2022-10-02T22:25:44.999Z,11.46
2022-10-02T22:29:57.775Z,11.36
2022-10-02T22:34:27.463Z,11.36
2022-10-02T22:39:03.453Z,11.29
2022-10-02T22:43:30.786Z,11.20
2022-10-02T22:48:29.263Z,11.23
2022-10-02T22:52:51.084Z,11.07
2022-10-02T22:57:02.545Z,11.14
2022-10-02T23:01:24.723Z,11.03
2022-10-02T23:05:36.223Z,11.02
2022-10-02T23:09:57.674Z,10.94
2022-10-02T23:14:23.147Z,10.73
2022-10-02T23:18:45.569Z,10.74
2022-10-02T23:23:19.263Z,10.68
2022-10-02T23:27:50.333Z,10.67
2022-10-02T23:32:27.768Z,10.51
2022-10-02T23:36:59.334Z,10.51
2022-10-02T23:41:47.851Z,10.41
2022-10-02T23:46:06.697Z,10.30
2022-10-02T23:50:24.031Z,10.30
2022-10-02T23:55:00.827Z,10.27
2022-10-02T23:59:31.285Z,10.26
